Time;durP1;ratioP1;P1;durP2;ratioP2;P2;SDS_P1;SDS_P2;PMS_P1;PMS_P2;Temp;Humidity;BMP_temperature;BMP_pressure;BME280_temperature;BME280_humidity;BME280_pressure;Samples;Min_cycle;Max_cycle;Signal;HPM_P1;HPM_P2
2024/02/20 00:00:57;;;;;;;;;;;15.50;88.50;;;;;;4036782;28;20496;-57
2024/02/20 00:03:39;;;;;;;;;;;15.50;88.60;;;;;;4046006;28;20037;-56
2024/02/20 00:06:20;;;;;;;;;;;15.50;88.60;;;;;;4084069;28;19933;-54
2024/02/20 00:09:01;;;;;;;;;;;15.50;88.70;;;;;;4092620;28;19933;-56
2024/02/20 00:11:43;;;;;;;;;;;15.50;88.70;;;;;;4086858;28;19929;-54
2024/02/20 00:14:24;;;;;;;;;;;15.40;89.60;;;;;;4092330;28;20053;-57
2024/02/20 00:17:04;;;;;;;;;;;15.50;88.80;;;;;;4102512;28;19933;-57
2024/02/20 00:19:46;;;;;;;;;;;15.40;88.80;;;;;;4080454;28;20551;-56
2024/02/20 00:22:27;;;;;;;;;;;15.40;88.90;;;;;;4079084;29;19933;-56
2024/02/20 00:25:08;;;;;;;;;;;15.40;88.90;;;;;;4089795;28;19930;-58
2024/02/20 00:27:49;;;;;;;;;;;15.40;89.00;;;;;;4083943;28;19929;-55
2024/02/20 00:30:30;;;;;;;;;;;15.40;89.10;;;;;;4091744;28;20402;-58
2024/02/20 00:33:11;;;;;;;;;;;15.40;89.10;;;;;;4085035;28;19929;-58
2024/02/20 00:35:53;;;;;;;;;;;15.40;89.20;;;;;;4079805;28;19930;-58
2024/02/20 00:38:34;;;;;;;;;;;15.30;89.20;;;;;;4091912;28;19981;-58
2024/02/20 00:41:15;;;;;;;;;;;15.30;89.20;;;;;;4091532;28;20774;-58
2024/02/20 00:43:55;;;;;;;;;;;15.30;89.30;;;;;;4091445;28;19949;-58
2024/02/20 00:46:37;;;;;;;;;;;15.30;89.30;;;;;;4091219;28;19973;-57
2024/02/20 00:49:18;;;;;;;;;;;15.30;89.40;;;;;;4091809;28;19930;-56
2024/02/20 00:52:03;;;;;;;;;;;15.30;89.50;;;;;;4082133;28;19971;-56
2024/02/20 00:54:44;;;;;;;;;;;15.30;89.50;;;;;;4091110;28;20410;-54
2024/02/20 00:57:26;;;;;;;;;;;15.30;90.20;;;;;;4091464;28;20383;-53
2024/02/20 01:00:13;;;;;;;;;;;15.20;89.60;;;;;;4091651;28;19949;-53
2024/02/20 01:02:53;;;;;;;;;;;15.20;89.60;;;;;;4075705;29;19930;-48
2024/02/20 01:05:34;;;;;;;;;;;15.20;89.60;;;;;;4091502;28;19933;-48
2024/02/20 01:08:16;;;;;;;;;;;15.20;89.70;;;;;;4091906;28;19965;-47
2024/02/20 01:10:57;;;;;;;;;;;15.20;89.70;;;;;;4079153;28;19946;-48
2024/02/20 01:13:39;;;;;;;;;;;15.20;89.70;;;;;;4090679;28;19934;-49
2024/02/20 01:16:20;;;;;;;;;;;15.20;89.80;;;;;;4092085;28;19969;-48
2024/02/20 01:19:00;;;;;;;;;;;15.20;89.90;;;;;;4091661;28;20427;-48
2024/02/20 01:21:41;;;;;;;;;;;15.20;89.90;;;;;;4091304;28;20423;-47
2024/02/20 01:24:23;;;;;;;;;;;15.10;90.30;;;;;;4091016;28;20419;-49
2024/02/20 01:27:04;;;;;;;;;;;15.10;89.90;;;;;;4091432;28;19938;-49
2024/02/20 01:29:45;;;;;;;;;;;15.10;89.90;;;;;;4091417;28;19930;-49
2024/02/20 01:32:26;;;;;;;;;;;15.10;90.00;;;;;;4101198;28;19989;-47
2024/02/20 01:35:07;;;;;;;;;;;15.10;90.00;;;;;;4091405;28;19977;-47
2024/02/20 01:37:48;;;;;;;;;;;15.10;90.00;;;;;;4102582;28;19957;-48
2024/02/20 01:40:30;;;;;;;;;;;15.10;90.00;;;;;;4090886;28;20009;-48
2024/02/20 01:43:13;;;;;;;;;;;15.10;90.00;;;;;;4075615;29;19951;-47
2024/02/20 01:45:54;;;;;;;;;;;15.10;90.00;;;;;;4090784;28;19933;-48
2024/02/20 01:48:34;;;;;;;;;;;15.10;90.10;;;;;;4090413;28;19937;-47
2024/02/20 01:51:15;;;;;;;;;;;15.00;90.00;;;;;;4090596;28;20074;-48
2024/02/20 01:53:57;;;;;;;;;;;15.00;90.10;;;;;;4090793;28;19933;-48
2024/02/20 01:56:39;;;;;;;;;;;15.00;90.10;;;;;;4090856;28;19930;-48
2024/02/20 01:59:21;;;;;;;;;;;15.00;90.10;;;;;;4079361;29;19929;-53
2024/02/20 02:02:02;;;;;;;;;;;15.00;90.10;;;;;;4089428;28;20475;-53
2024/02/20 02:04:43;;;;;;;;;;;15.00;90.10;;;;;;4090025;28;19961;-54
2024/02/20 02:07:24;;;;;;;;;;;15.00;90.10;;;;;;4084803;28;19977;-55
2024/02/20 02:10:05;;;;;;;;;;;15.00;90.10;;;;;;4090471;28;20367;-56
2024/02/20 02:12:47;;;;;;;;;;;15.00;90.20;;;;;;4099962;28;19934;-55
2024/02/20 02:15:28;;;;;;;;;;;15.00;90.20;;;;;;4091033;28;20472;-55
2024/02/20 02:18:09;;;;;;;;;;;14.90;90.20;;;;;;4090489;28;19942;-54
2024/02/20 02:20:50;;;;;;;;;;;14.90;90.20;;;;;;4089835;28;20279;-55
2024/02/20 02:23:30;;;;;;;;;;;14.90;90.20;;;;;;4079332;29;19944;-55
2024/02/20 02:26:12;;;;;;;;;;;14.90;90.20;;;;;;4090300;28;20283;-56
2024/02/20 02:28:53;;;;;;;;;;;14.90;90.20;;;;;;4090448;28;19930;-56
2024/02/20 02:31:34;;;;;;;;;;;14.90;90.20;;;;;;4090533;28;19993;-56
2024/02/20 02:34:14;;;;;;;;;;;14.90;90.30;;;;;;4090258;28;19958;-56
2024/02/20 02:36:55;;;;;;;;;;;15.00;90.30;;;;;;4090839;28;20038;-57
2024/02/20 02:39:35;;;;;;;;;;;15.10;90.20;;;;;;4090584;28;20364;-57
2024/02/20 02:42:17;;;;;;;;;;;15.20;90.10;;;;;;4089919;28;19930;-56
2024/02/20 02:44:58;;;;;;;;;;;15.20;89.90;;;;;;4078380;28;19980;-56
2024/02/20 02:47:39;;;;;;;;;;;15.30;89.70;;;;;;4090322;28;19930;-56
2024/02/20 02:50:19;;;;;;;;;;;15.30;89.50;;;;;;4090412;28;20403;-55
2024/02/20 02:53:01;;;;;;;;;;;15.30;89.40;;;;;;4081085;28;19933;-55
2024/02/20 02:55:41;;;;;;;;;;;15.30;89.30;;;;;;4090644;28;19928;-53
2024/02/20 02:58:23;;;;;;;;;;;15.30;89.20;;;;;;4090029;28;19933;-55
2024/02/20 03:01:04;;;;;;;;;;;15.30;89.20;;;;;;4077973;29;20419;-55
2024/02/20 03:03:45;;;;;;;;;;;15.30;89.30;;;;;;4074714;29;20062;-55
2024/02/20 03:06:25;;;;;;;;;;;15.30;89.30;;;;;;4074319;29;19938;-54
2024/02/20 03:09:12;;;;;;;;;;;15.30;89.40;;;;;;4074057;29;19929;-56
2024/02/20 03:11:53;;;;;;;;;;;15.30;89.40;;;;;;4082359;28;19929;-55
2024/02/20 03:14:35;;;;;;;;;;;15.30;89.30;;;;;;4074212;29;19949;-55
2024/02/20 03:17:18;;;;;;;;;;;15.40;90.00;;;;;;4062677;29;19934;-56
2024/02/20 03:19:59;;;;;;;;;;;15.30;89.10;;;;;;4085938;28;19968;-55
2024/02/20 03:22:40;;;;;;;;;;;15.30;89.20;;;;;;4089355;29;19973;-56
2024/02/20 03:25:21;;;;;;;;;;;15.40;89.20;;;;;;4089366;28;19956;-56
2024/02/20 03:28:02;;;;;;;;;;;15.40;89.10;;;;;;4089191;28;19929;-55
2024/02/20 03:30:44;;;;;;;;;;;15.40;89.00;;;;;;4088655;28;20016;-53
2024/02/20 03:33:26;;;;;;;;;;;15.40;89.00;;;;;;4087526;29;20024;-56
2024/02/20 03:36:07;;;;;;;;;;;15.40;88.90;;;;;;4090625;28;20085;-57
2024/02/20 03:38:48;;;;;;;;;;;15.50;88.70;;;;;;4094438;28;19985;-59
2024/02/20 03:41:29;;;;;;;;;;;15.60;88.50;;;;;;4093893;28;19985;-58
2024/02/20 03:44:09;;;;;;;;;;;15.60;88.30;;;;;;4094269;28;19929;-60
2024/02/20 03:46:51;;;;;;;;;;;15.60;88.20;;;;;;4094715;28;19929;-57
2024/02/20 03:49:32;;;;;;;;;;;15.60;88.90;;;;;;4094988;28;20001;-57
2024/02/20 03:52:14;;;;;;;;;;;15.60;88.00;;;;;;4093931;28;19949;-57
2024/02/20 03:54:54;;;;;;;;;;;15.70;88.10;;;;;;4094531;28;19929;-57
2024/02/20 03:57:35;;;;;;;;;;;15.60;88.00;;;;;;4094472;28;20017;-57
2024/02/20 04:00:16;;;;;;;;;;;15.60;88.00;;;;;;4074455;28;20286;-58
2024/02/20 04:02:58;;;;;;;;;;;15.60;88.10;;;;;;4094335;29;20402;-57
2024/02/20 04:05:40;;;;;;;;;;;15.60;89.00;;;;;;4094308;28;19981;-56
2024/02/20 04:08:20;;;;;;;;;;;15.60;88.30;;;;;;4093354;28;19930;-57
2024/02/20 04:11:01;;;;;;;;;;;15.60;88.20;;;;;;4094112;28;19973;-57
2024/02/20 04:13:42;;;;;;;;;;;15.70;88.10;;;;;;4085491;29;20431;-57
2024/02/20 04:16:22;;;;;;;;;;;15.70;87.90;;;;;;4094605;28;20451;-57
2024/02/20 04:19:04;;;;;;;;;;;15.70;87.90;;;;;;4094672;28;20374;-57
2024/02/20 04:21:45;;;;;;;;;;;15.70;87.90;;;;;;4094648;28;20050;-57
2024/02/20 04:24:26;;;;;;;;;;;15.80;87.70;;;;;;4094609;28;19932;-57
2024/02/20 04:27:07;;;;;;;;;;;15.80;87.50;;;;;;4094037;28;19929;-57
2024/02/20 04:29:47;;;;;;;;;;;15.80;87.50;;;;;;4094618;28;19932;-58
2024/02/20 04:32:28;;;;;;;;;;;15.80;87.50;;;;;;4078755;28;20264;-57
2024/02/20 04:35:10;;;;;;;;;;;15.80;87.50;;;;;;4094440;28;20398;-57
2024/02/20 04:37:51;;;;;;;;;;;15.80;87.50;;;;;;4094626;28;19957;-58
2024/02/20 04:40:33;;;;;;;;;;;15.80;88.30;;;;;;4094811;28;19966;-57
2024/02/20 04:43:14;;;;;;;;;;;15.70;87.40;;;;;;4084253;28;19933;-57
2024/02/20 04:45:54;;;;;;;;;;;15.70;87.50;;;;;;4094249;28;19929;-58
2024/02/20 04:48:35;;;;;;;;;;;15.70;88.40;;;;;;4090979;28;19929;-57
2024/02/20 04:51:17;;;;;;;;;;;15.60;87.60;;;;;;4091547;28;19933;-57
2024/02/20 04:53:58;;;;;;;;;;;15.70;87.80;;;;;;4091120;28;19933;-57
2024/02/20 04:56:38;;;;;;;;;;;15.70;87.80;;;;;;4079807;28;19938;-57
2024/02/20 04:59:20;;;;;;;;;;;15.70;87.60;;;;;;4079192;28;20017;-57
2024/02/20 05:02:02;;;;;;;;;;;15.70;87.50;;;;;;4091141;28;19934;-56
2024/02/20 05:04:43;;;;;;;;;;;15.80;87.50;;;;;;4091296;28;20053;-56
2024/02/20 05:07:25;;;;;;;;;;;15.80;87.40;;;;;;4090601;28;19933;-56
2024/02/20 05:10:07;;;;;;;;;;;15.80;87.40;;;;;;4084099;28;19928;-55
2024/02/20 05:12:48;;;;;;;;;;;15.80;87.30;;;;;;4088664;28;19929;-56
2024/02/20 05:15:28;;;;;;;;;;;15.80;87.30;;;;;;4091575;28;20375;-56
2024/02/20 05:18:09;;;;;;;;;;;15.80;87.40;;;;;;4091638;28;19930;-55
2024/02/20 05:20:50;;;;;;;;;;;15.80;87.30;;;;;;4079837;28;20371;-56
2024/02/20 05:23:32;;;;;;;;;;;15.80;87.30;;;;;;4076060;29;19929;-56
2024/02/20 05:26:13;;;;;;;;;;;15.70;87.30;;;;;;4080131;28;20291;-56
2024/02/20 05:28:54;;;;;;;;;;;15.70;87.40;;;;;;4091599;28;19930;-54
2024/02/20 05:31:35;;;;;;;;;;;15.70;87.50;;;;;;4090089;28;20021;-56
2024/02/20 05:34:15;;;;;;;;;;;15.60;87.50;;;;;;4091184;28;19934;-56
2024/02/20 05:36:56;;;;;;;;;;;15.60;87.70;;;;;;4076926;29;19930;-56
2024/02/20 05:39:38;;;;;;;;;;;15.60;87.90;;;;;;4091547;28;19933;-56
2024/02/20 05:42:19;;;;;;;;;;;15.60;88.10;;;;;;4090406;28;19929;-56
2024/02/20 05:44:59;;;;;;;;;;;15.60;87.90;;;;;;4091113;28;19981;-57
2024/02/20 05:47:41;;;;;;;;;;;15.70;87.70;;;;;;4074990;29;19929;-57
2024/02/20 05:50:23;;;;;;;;;;;15.70;87.40;;;;;;4085037;28;20054;-57
2024/02/20 05:53:05;;;;;;;;;;;15.70;87.30;;;;;;4090986;28;19929;-57
2024/02/20 05:55:48;;;;;;;;;;;15.80;87.30;;;;;;4091467;28;19935;-56
2024/02/20 05:58:29;;;;;;;;;;;15.70;87.30;;;;;;4091483;28;19928;-57
2024/02/20 06:01:11;;;;;;;;;;;15.70;87.40;;;;;;4090615;28;19948;-57
2024/02/20 06:03:52;;;;;;;;;;;15.80;87.40;;;;;;4075313;29;19957;-47
2024/02/20 06:06:34;;;;;;;;;;;15.80;87.10;;;;;;4075330;29;20021;-47
2024/02/20 06:09:15;;;;;;;;;;;15.90;86.80;;;;;;4091147;28;19928;-50
2024/02/20 06:11:59;;;;;;;;;;;15.90;86.50;;;;;;4079748;29;20280;-50
2024/02/20 06:14:42;;;;;;;;;;;16.00;86.50;;;;;;4090539;28;19933;-48
2024/02/20 06:17:23;;;;;;;;;;;16.00;86.40;;;;;;4088582;28;19973;-48
2024/02/20 06:20:04;;;;;;;;;;;16.00;86.20;;;;;;4089787;28;19929;-56
2024/02/20 06:22:45;;;;;;;;;;;16.10;86.20;;;;;;4089902;28;19933;-57
2024/02/20 06:25:27;;;;;;;;;;;16.10;86.10;;;;;;4090071;28;19937;-56
2024/02/20 06:28:09;;;;;;;;;;;16.10;86.00;;;;;;4089890;28;19933;-56
2024/02/20 06:30:51;;;;;;;;;;;16.10;85.90;;;;;;4089114;28;20382;-56
2024/02/20 06:33:31;;;;;;;;;;;16.10;86.00;;;;;;4087860;28;19944;-58
2024/02/20 06:36:12;;;;;;;;;;;16.00;86.00;;;;;;4089669;28;19953;-55
2024/02/20 06:38:52;;;;;;;;;;;16.00;86.20;;;;;;4089610;28;19945;-56
2024/02/20 06:41:33;;;;;;;;;;;16.00;86.50;;;;;;4089067;28;19968;-56
2024/02/20 06:44:16;;;;;;;;;;;16.00;86.50;;;;;;4089877;28;19929;-55
2024/02/20 06:46:56;;;;;;;;;;;16.00;86.30;;;;;;4091676;28;19930;-55
2024/02/20 06:49:37;;;;;;;;;;;16.00;86.20;;;;;;4084232;29;19989;-55
2024/02/20 06:52:18;;;;;;;;;;;16.00;87.00;;;;;;4078647;28;19933;-55
2024/02/20 06:54:58;;;;;;;;;;;16.00;86.30;;;;;;4090025;28;20386;-56
2024/02/20 06:57:39;;;;;;;;;;;16.10;86.30;;;;;;4090031;28;20053;-60
2024/02/20 07:00:22;;;;;;;;;;;16.20;86.00;;;;;;4089652;28;19933;-59
2024/02/20 07:03:03;;;;;;;;;;;16.20;85.70;;;;;;4085364;28;19934;-59
2024/02/20 07:05:43;;;;;;;;;;;16.20;85.50;;;;;;4089240;28;20727;-59
2024/02/20 07:08:25;;;;;;;;;;;16.30;85.40;;;;;;4077803;29;19953;-60
2024/02/20 07:11:08;;;;;;;;;;;16.30;84.90;;;;;;4084637;28;19929;-58
2024/02/20 07:13:49;;;;;;;;;;;16.30;84.60;;;;;;4089016;28;19945;-60
2024/02/20 07:16:31;;;;;;;;;;;16.30;84.40;;;;;;4087504;28;19933;-60
2024/02/20 07:19:12;;;;;;;;;;;16.30;84.10;;;;;;4089333;28;20395;-60
2024/02/20 07:21:53;;;;;;;;;;;16.30;83.80;;;;;;4098899;28;19933;-60
2024/02/20 07:24:34;;;;;;;;;;;16.30;83.70;;;;;;4104882;28;19945;-48
2024/02/20 07:27:15;;;;;;;;;;;16.20;83.50;;;;;;4105113;28;19929;-49
2024/02/20 07:29:56;;;;;;;;;;;16.20;83.50;;;;;;4105060;28;19952;-48
2024/02/20 07:32:39;;;;;;;;;;;16.20;83.60;;;;;;4103499;28;19960;-48
2024/02/20 07:35:20;;;;;;;;;;;16.10;83.30;;;;;;4089744;28;20016;-47
2024/02/20 07:38:02;;;;;;;;;;;16.20;83.10;;;;;;4089652;28;20774;-47
2024/02/20 07:40:43;;;;;;;;;;;16.20;82.80;;;;;;4089432;28;20016;-48
2024/02/20 07:43:23;;;;;;;;;;;16.20;82.60;;;;;;4089442;28;20411;-48
2024/02/20 07:46:04;;;;;;;;;;;16.20;82.30;;;;;;4076617;28;19930;-48
2024/02/20 07:48:47;;;;;;;;;;;16.20;82.10;;;;;;4088948;28;20442;-59
2024/02/20 07:51:29;;;;;;;;;;;16.20;82.90;;;;;;4099172;28;20376;-59
2024/02/20 07:54:10;;;;;;;;;;;16.20;81.80;;;;;;4081807;28;19929;-60
2024/02/20 07:56:51;;;;;;;;;;;16.20;81.10;;;;;;4088823;28;19934;-61
2024/02/20 07:59:31;;;;;;;;;;;16.30;80.90;;;;;;4088970;28;20287;-61
2024/02/20 08:02:13;;;;;;;;;;;16.30;80.60;;;;;;4088501;28;20012;-48
2024/02/20 08:04:55;;;;;;;;;;;16.30;80.10;;;;;;4088700;28;20294;-47
2024/02/20 08:07:37;;;;;;;;;;;16.30;80.80;;;;;;4088760;28;20005;-48
2024/02/20 08:10:20;;;;;;;;;;;16.30;79.80;;;;;;4088906;28;19930;-48
2024/02/20 08:13:01;;;;;;;;;;;16.20;80.70;;;;;;4087480;28;19937;-46
2024/02/20 08:15:42;;;;;;;;;;;16.20;79.90;;;;;;4080572;28;19992;-51
2024/02/20 08:18:22;;;;;;;;;;;16.20;79.80;;;;;;4089472;28;20431;-49
2024/02/20 08:21:04;;;;;;;;;;;16.20;79.60;;;;;;4073311;29;20044;-52
2024/02/20 08:23:45;;;;;;;;;;;16.20;79.40;;;;;;4075787;29;20059;-48
2024/02/20 08:26:26;;;;;;;;;;;16.20;79.50;;;;;;4091688;28;19933;-49
2024/02/20 08:29:08;;;;;;;;;;;16.10;79.30;;;;;;4090250;28;19934;-50
2024/02/20 08:31:49;;;;;;;;;;;16.10;79.30;;;;;;4089843;28;19938;-61
2024/02/20 08:34:30;;;;;;;;;;;16.10;79.50;;;;;;4088636;28;19930;-61
2024/02/20 08:37:12;;;;;;;;;;;16.10;79.40;;;;;;4089515;28;20047;-61
2024/02/20 08:39:53;;;;;;;;;;;16.10;79.50;;;;;;4089720;28;19929;-62
2024/02/20 08:42:34;;;;;;;;;;;16.10;79.30;;;;;;4082208;28;19933;-62
2024/02/20 08:45:15;;;;;;;;;;;16.10;79.20;;;;;;4095312;28;19989;-48
2024/02/20 08:47:57;;;;;;;;;;;16.10;79.10;;;;;;4092208;28;19959;-60
2024/02/20 08:50:38;;;;;;;;;;;16.10;79.00;;;;;;4097774;28;19933;-61
2024/02/20 08:53:20;;;;;;;;;;;16.20;78.80;;;;;;4102361;28;19932;-62
2024/02/20 08:56:01;;;;;;;;;;;16.20;78.50;;;;;;4096381;28;20081;-61
2024/02/20 08:58:41;;;;;;;;;;;16.30;78.20;;;;;;4081066;28;19930;-61
2024/02/20 09:01:24;;;;;;;;;;;16.30;78.10;;;;;;4097313;28;19949;-58
2024/02/20 09:04:06;;;;;;;;;;;16.30;78.80;;;;;;4097575;28;19937;-50
2024/02/20 09:06:47;;;;;;;;;;;16.40;77.90;;;;;;4090589;28;20023;-49
2024/02/20 09:09:29;;;;;;;;;;;16.40;77.80;;;;;;4090007;28;19972;-61
2024/02/20 09:12:10;;;;;;;;;;;16.50;77.60;;;;;;4081719;28;19970;-62
2024/02/20 09:14:50;;;;;;;;;;;16.50;77.40;;;;;;4089945;28;19934;-60
2024/02/20 09:17:31;;;;;;;;;;;16.50;77.00;;;;;;4109815;28;20391;-49
2024/02/20 09:20:12;;;;;;;;;;;16.50;77.70;;;;;;4097787;28;19945;-50
2024/02/20 09:22:53;;;;;;;;;;;16.40;76.70;;;;;;4088579;28;19933;-47
2024/02/20 09:25:36;;;;;;;;;;;16.40;76.70;;;;;;4094952;28;19997;-48
2024/02/20 09:28:16;;;;;;;;;;;16.40;76.60;;;;;;4102467;28;19937;-53
2024/02/20 09:30:57;;;;;;;;;;;16.30;76.50;;;;;;4089121;28;19973;-50
2024/02/20 09:33:38;;;;;;;;;;;16.30;76.40;;;;;;4087555;28;19949;-50
2024/02/20 09:36:19;;;;;;;;;;;16.20;76.20;;;;;;4083358;28;19991;-49
2024/02/20 09:39:03;;;;;;;;;;;16.10;76.30;;;;;;4088473;28;19981;-50
2024/02/20 09:41:46;;;;;;;;;;;16.10;76.50;;;;;;4088729;28;20295;-48
2024/02/20 09:44:28;;;;;;;;;;;16.00;76.80;;;;;;4088014;28;20383;-51
2024/02/20 09:47:11;;;;;;;;;;;16.00;77.20;;;;;;4097183;28;20387;-49
2024/02/20 09:49:54;;;;;;;;;;;15.90;77.50;;;;;;4076829;28;20295;-48
2024/02/20 09:52:35;;;;;;;;;;;15.90;77.80;;;;;;4088518;28;19929;-47
2024/02/20 09:55:18;;;;;;;;;;;15.90;78.00;;;;;;4088503;28;19929;-48
2024/02/20 09:58:01;;;;;;;;;;;15.80;78.20;;;;;;4094858;28;20355;-59
2024/02/20 10:00:42;;;;;;;;;;;15.80;78.60;;;;;;4087799;28;19964;-60
2024/02/20 10:03:24;;;;;;;;;;;15.80;78.90;;;;;;4088710;28;19949;-59
2024/02/20 10:06:08;;;;;;;;;;;15.80;80.40;;;;;;4087943;28;20070;-60
2024/02/20 10:08:50;;;;;;;;;;;15.90;79.90;;;;;;4088804;28;19929;-59
2024/02/20 10:11:35;;;;;;;;;;;15.90;80.60;;;;;;4090177;28;19957;-59
2024/02/20 10:14:26;;;;;;;;;;;16.00;79.50;;;;;;4090374;28;20389;-60
2024/02/20 10:17:07;;;;;;;;;;;16.00;79.60;;;;;;4090553;28;19933;-48
2024/02/20 10:19:47;;;;;;;;;;;16.00;79.60;;;;;;4090834;28;19989;-51
2024/02/20 10:22:28;;;;;;;;;;;16.00;79.70;;;;;;4089904;28;20295;-52
2024/02/20 10:25:11;;;;;;;;;;;16.00;80.00;;;;;;4100410;28;20037;-51
2024/02/20 10:27:52;;;;;;;;;;;16.00;80.20;;;;;;4090705;28;19929;-51
2024/02/20 10:30:38;;;;;;;;;;;16.00;80.90;;;;;;4090622;28;19933;-50
2024/02/20 10:33:18;;;;;;;;;;;16.10;80.00;;;;;;4090478;28;19934;-51
2024/02/20 10:36:06;;;;;;;;;;;16.10;79.80;;;;;;4078481;28;19929;-48
2024/02/20 10:38:47;;;;;;;;;;;16.10;79.70;;;;;;4089467;28;19961;-50
2024/02/20 10:41:29;;;;;;;;;;;16.10;79.80;;;;;;4073588;29;19981;-51
2024/02/20 10:44:11;;;;;;;;;;;16.10;80.00;;;;;;4074216;29;20074;-48
2024/02/20 10:46:56;;;;;;;;;;;16.10;79.90;;;;;;4061302;29;19930;-47
2024/02/20 10:49:38;;;;;;;;;;;16.20;79.90;;;;;;4060571;29;19929;-52
2024/02/20 10:52:19;;;;;;;;;;;16.10;80.00;;;;;;4066726;29;19929;-48
2024/02/20 10:55:03;;;;;;;;;;;16.10;79.80;;;;;;4074403;29;19930;-51
2024/02/20 10:57:49;;;;;;;;;;;16.20;79.90;;;;;;4074156;29;20057;-51
2024/02/20 11:00:30;;;;;;;;;;;16.20;79.80;;;;;;4074211;29;20075;-51
2024/02/20 11:03:12;;;;;;;;;;;16.20;79.90;;;;;;4067019;29;19929;-51
2024/02/20 11:05:57;;;;;;;;;;;16.30;79.80;;;;;;4073340;29;20614;-59
2024/02/20 11:08:37;;;;;;;;;;;16.30;80.60;;;;;;4074221;29;19937;-59
2024/02/20 11:11:18;;;;;;;;;;;16.30;79.60;;;;;;4050258;29;19978;-59
2024/02/20 11:13:59;;;;;;;;;;;16.30;80.50;;;;;;4084494;28;20382;-60
2024/02/20 11:16:41;;;;;;;;;;;16.40;79.60;;;;;;4088379;28;20505;-60
2024/02/20 11:19:29;;;;;;;;;;;16.40;79.50;;;;;;4089070;28;19934;-60
2024/02/20 11:22:09;;;;;;;;;;;16.40;79.40;;;;;;4088985;28;19934;-59
2024/02/20 11:24:50;;;;;;;;;;;16.50;79.60;;;;;;4089696;28;20439;-60
2024/02/20 11:27:37;;;;;;;;;;;16.50;79.60;;;;;;4070688;28;20306;-60
2024/02/20 11:30:18;;;;;;;;;;;16.50;79.70;;;;;;4094045;28;19938;-60
2024/02/20 11:32:59;;;;;;;;;;;16.50;79.60;;;;;;4089970;28;20386;-60
2024/02/20 11:35:43;;;;;;;;;;;16.50;79.60;;;;;;4089618;28;19929;-60
2024/02/20 11:38:24;;;;;;;;;;;16.50;79.70;;;;;;4063479;28;19929;-59
2024/02/20 11:41:06;;;;;;;;;;;16.50;79.90;;;;;;4089454;28;20317;-59
2024/02/20 11:43:47;;;;;;;;;;;16.40;80.00;;;;;;4089403;28;19929;-59
2024/02/20 11:46:27;;;;;;;;;;;16.40;80.40;;;;;;4088972;28;19972;-59
2024/02/20 11:49:08;;;;;;;;;;;16.40;80.60;;;;;;4073658;29;20328;-59
2024/02/20 11:51:51;;;;;;;;;;;16.40;80.70;;;;;;4073953;29;19945;-60
2024/02/20 11:54:31;;;;;;;;;;;16.40;80.50;;;;;;4074063;29;20478;-60
2024/02/20 11:57:12;;;;;;;;;;;16.40;80.60;;;;;;4061766;29;20058;-60
2024/02/20 11:59:54;;;;;;;;;;;16.40;80.60;;;;;;4076818;29;19933;-59
2024/02/20 12:02:35;;;;;;;;;;;16.40;80.40;;;;;;4077123;29;20391;-52
2024/02/20 12:05:24;;;;;;;;;;;16.50;80.50;;;;;;4082341;28;20394;-51
2024/02/20 12:08:13;;;;;;;;;;;16.40;80.40;;;;;;4092714;28;20000;-52
2024/02/20 12:11:04;;;;;;;;;;;16.50;80.50;;;;;;4091031;28;20013;-51
2024/02/20 12:13:46;;;;;;;;;;;16.50;80.40;;;;;;4089319;28;20367;-50
2024/02/20 12:16:29;;;;;;;;;;;16.60;80.30;;;;;;4092083;28;19933;-51
2024/02/20 12:19:11;;;;;;;;;;;16.60;80.10;;;;;;4084943;28;19949;-49
2024/02/20 12:22:00;;;;;;;;;;;16.60;80.00;;;;;;4091255;28;20066;-48
2024/02/20 12:24:43;;;;;;;;;;;16.60;79.80;;;;;;4092023;28;20383;-51
2024/02/20 12:27:23;;;;;;;;;;;16.70;80.00;;;;;;4091732;28;20046;-51
2024/02/20 12:30:05;;;;;;;;;;;16.70;79.80;;;;;;4103002;28;19934;-52
2024/02/20 12:32:45;;;;;;;;;;;16.70;79.80;;;;;;4080010;28;19989;-51
2024/02/20 12:35:26;;;;;;;;;;;16.70;79.70;;;;;;4092431;28;20090;-52
2024/02/20 12:38:07;;;;;;;;;;;16.70;79.70;;;;;;4091711;28;20318;-52
2024/02/20 12:40:49;;;;;;;;;;;16.70;79.80;;;;;;4091787;28;19949;-50
2024/02/20 12:43:30;;;;;;;;;;;16.70;79.70;;;;;;4091831;28;19934;-59
2024/02/20 12:46:10;;;;;;;;;;;16.70;79.60;;;;;;4092154;28;20476;-60
2024/02/20 12:48:54;;;;;;;;;;;16.70;79.70;;;;;;4075087;29;19934;-60
2024/02/20 12:51:35;;;;;;;;;;;16.70;79.70;;;;;;4061822;29;19929;-59
2024/02/20 12:54:18;;;;;;;;;;;16.70;80.00;;;;;;4067453;29;20300;-60
2024/02/20 12:57:00;;;;;;;;;;;16.60;80.30;;;;;;4075681;29;19929;-59
2024/02/20 12:59:41;;;;;;;;;;;16.70;80.20;;;;;;4076260;29;19934;-60
2024/02/20 13:02:21;;;;;;;;;;;16.80;80.10;;;;;;4076072;29;19929;-59
2024/02/20 13:05:02;;;;;;;;;;;16.80;79.80;;;;;;4060341;29;19934;-59
2024/02/20 13:07:43;;;;;;;;;;;16.90;79.50;;;;;;4060051;29;19934;-59
2024/02/20 13:10:26;;;;;;;;;;;16.80;79.40;;;;;;4059672;29;19990;-59
2024/02/20 13:13:09;;;;;;;;;;;16.80;79.50;;;;;;4062658;29;19934;-60
2024/02/20 13:15:53;;;;;;;;;;;16.70;79.70;;;;;;4075861;29;19933;-59
2024/02/20 13:18:34;;;;;;;;;;;16.70;79.90;;;;;;4075747;29;19930;-61
2024/02/20 13:21:14;;;;;;;;;;;16.70;80.00;;;;;;4075646;29;19930;-61
2024/02/20 13:23:57;;;;;;;;;;;16.60;80.10;;;;;;4075248;29;19942;-58
2024/02/20 13:26:38;;;;;;;;;;;16.60;80.30;;;;;;4075498;29;20377;-60
2024/02/20 13:29:21;;;;;;;;;;;16.50;80.40;;;;;;4075300;29;19934;-61
2024/02/20 13:32:03;;;;;;;;;;;16.50;80.60;;;;;;4075165;29;20365;-60
2024/02/20 13:34:43;;;;;;;;;;;16.40;80.80;;;;;;4069456;29;20003;-60
2024/02/20 13:37:26;;;;;;;;;;;16.40;80.90;;;;;;4070083;29;19946;-60
2024/02/20 13:40:08;;;;;;;;;;;16.40;81.10;;;;;;4055680;29;19933;-60
2024/02/20 13:42:50;;;;;;;;;;;16.30;81.10;;;;;;4075156;29;19933;-60
2024/02/20 13:45:42;;;;;;;;;;;16.20;81.30;;;;;;4059676;29;20055;-60
2024/02/20 13:48:27;;;;;;;;;;;16.20;81.40;;;;;;4069818;29;19929;-60
2024/02/20 13:51:07;;;;;;;;;;;16.20;81.80;;;;;;4075228;29;19934;-59
2024/02/20 13:53:48;;;;;;;;;;;16.20;82.00;;;;;;4064982;29;20359;-59
2024/02/20 13:56:29;;;;;;;;;;;16.10;82.10;;;;;;4074396;29;19933;-60
2024/02/20 13:59:12;;;;;;;;;;;16.10;82.20;;;;;;4074554;29;19930;-59
2024/02/20 14:01:54;;;;;;;;;;;16.10;82.30;;;;;;4062964;29;20296;-59
2024/02/20 14:04:35;;;;;;;;;;;16.00;83.30;;;;;;4072001;29;19977;-59
2024/02/20 14:07:15;;;;;;;;;;;16.00;82.50;;;;;;4074969;29;20410;-60
2024/02/20 14:09:57;;;;;;;;;;;15.90;82.60;;;;;;4075650;29;20078;-60
2024/02/20 14:12:37;;;;;;;;;;;15.90;83.70;;;;;;4074405;29;19929;-59
2024/02/20 14:15:18;;;;;;;;;;;15.90;82.90;;;;;;4057391;29;19934;-59
2024/02/20 14:18:00;;;;;;;;;;;15.80;82.90;;;;;;4073758;29;20634;-59
2024/02/20 14:20:41;;;;;;;;;;;15.90;83.10;;;;;;4074327;29;19949;-60
2024/02/20 14:23:22;;;;;;;;;;;15.80;83.10;;;;;;4074706;29;19969;-60
2024/02/20 14:26:03;;;;;;;;;;;15.80;83.30;;;;;;4074866;29;19933;-60
2024/02/20 14:28:45;;;;;;;;;;;15.80;83.40;;;;;;4074564;29;19960;-59
2024/02/20 14:31:27;;;;;;;;;;;15.70;83.50;;;;;;4074814;29;20369;-60
2024/02/20 14:34:09;;;;;;;;;;;15.70;83.70;;;;;;4074431;29;19930;-60
2024/02/20 14:36:50;;;;;;;;;;;15.70;83.70;;;;;;4074777;29;20465;-60
2024/02/20 14:39:31;;;;;;;;;;;15.70;84.60;;;;;;4074837;29;19961;-60
2024/02/20 14:42:11;;;;;;;;;;;15.60;83.70;;;;;;4073892;29;19934;-60
2024/02/20 14:44:53;;;;;;;;;;;15.60;83.70;;;;;;4074625;29;20387;-60
2024/02/20 14:47:34;;;;;;;;;;;15.60;83.90;;;;;;4090625;28;20602;-59
2024/02/20 14:50:16;;;;;;;;;;;15.60;84.00;;;;;;4090345;29;19972;-49
2024/02/20 14:52:58;;;;;;;;;;;15.60;84.10;;;;;;4078003;28;19981;-49
2024/02/20 14:55:39;;;;;;;;;;;15.50;84.20;;;;;;4089875;28;19929;-51
2024/02/20 14:58:19;;;;;;;;;;;15.50;84.10;;;;;;4072315;29;19953;-59
2024/02/20 15:01:02;;;;;;;;;;;15.50;84.30;;;;;;4077037;28;20585;-48
2024/02/20 15:03:44;;;;;;;;;;;15.50;84.50;;;;;;4077930;28;20037;-49
2024/02/20 15:06:28;;;;;;;;;;;15.50;84.70;;;;;;4076975;29;19930;-59
2024/02/20 15:09:10;;;;;;;;;;;15.50;84.80;;;;;;4089377;28;19933;-59
2024/02/20 15:11:50;;;;;;;;;;;15.50;84.90;;;;;;4073346;29;19977;-58
2024/02/20 15:14:31;;;;;;;;;;;15.50;84.80;;;;;;4081554;29;19929;-58
2024/02/20 15:17:12;;;;;;;;;;;15.50;84.90;;;;;;4089372;28;19934;-59
2024/02/20 15:19:53;;;;;;;;;;;15.50;85.00;;;;;;4075968;28;20017;-59
2024/02/20 15:22:40;;;;;;;;;;;15.50;85.10;;;;;;4089819;28;20029;-47
2024/02/20 15:25:21;;;;;;;;;;;15.40;85.10;;;;;;4089494;28;19929;-48
2024/02/20 15:28:02;;;;;;;;;;;15.40;85.20;;;;;;4089600;28;19945;-48
2024/02/20 15:30:43;;;;;;;;;;;15.40;85.30;;;;;;4089268;28;19934;-47
2024/02/20 15:33:24;;;;;;;;;;;15.50;85.30;;;;;;4088267;28;19929;-49
2024/02/20 15:36:05;;;;;;;;;;;15.50;85.10;;;;;;4089446;28;19929;-59
2024/02/20 15:38:47;;;;;;;;;;;15.50;84.90;;;;;;4089010;28;20292;-59